Time;durP1;ratioP1;P1;durP2;ratioP2;P2;SDS_P1;SDS_P2;PMS_P1;PMS_P2;Temp;Humidity;BMP_temperature;BMP_pressure;BME280_temperature;BME280_humidity;BME280_pressure;Samples;Min_cycle;Max_cycle;Signal;HPM_P1;HPM_P2
2022/04/29 00:02:23;;;;;;;28.65;12.13;;;;;;;-144.47;53.08;53344.72;5086538;28;20040;-67
2022/04/29 00:04:48;;;;;;;19.77;11.82;;;;;;;-144.47;53.43;53330.81;5079830;28;20032;-67
2022/04/29 00:07:14;;;;;;;20.67;11.38;;;;;;;-144.47;53.68;53352.66;5084923;28;20342;-68
2022/04/29 00:09:40;;;;;;;18.65;11.85;;;;;;;-144.47;53.79;53326.84;5087091;28;20017;-68
2022/04/29 00:12:07;;;;;;;26.95;12.05;;;;;;;-144.47;54.27;53332.81;5086473;28;20544;-65
2022/04/29 00:14:32;;;;;;;20.88;11.90;;;;;;;-144.47;54.38;53334.78;5084119;28;20032;-64
2022/04/29 00:16:58;;;;;;;23.13;13.35;;;;;;;-144.47;54.71;53382.47;5077560;28;20413;-66
2022/04/29 00:19:23;;;;;;;23.83;13.00;;;;;;;-144.47;54.97;53338.75;5085767;28;20023;-66
2022/04/29 00:21:49;;;;;;;23.70;13.93;;;;;;;-144.47;55.41;53348.69;5090614;28;20092;-66
2022/04/29 00:24:14;;;;;;;25.70;13.93;;;;;;;-144.47;55.72;53342.72;5091153;28;20036;-66
2022/04/29 00:26:40;;;;;;;28.45;13.95;;;;;;;-144.47;55.72;53340.75;5070088;28;20033;-67
2022/04/29 00:29:06;;;;;;;30.17;14.95;;;;;;;-144.47;55.89;53368.56;5077647;28;20540;-68
2022/04/29 00:31:32;;;;;;;29.35;14.68;;;;;;;-144.47;55.99;53352.66;5089748;28;20040;-65
2022/04/29 00:33:58;;;;;;;25.27;13.80;;;;;;;-144.47;56.34;53360.63;5086163;28;20400;-67
2022/04/29 00:36:24;;;;;;;23.75;13.75;;;;;;;-144.47;56.81;53326.84;5082057;28;20115;-67
2022/04/29 00:38:50;;;;;;;27.98;14.57;;;;;;;-144.47;56.79;53352.66;5089873;28;20040;-66
2022/04/29 00:41:16;;;;;;;26.73;13.90;;;;;;;-144.47;56.75;53344.72;5090025;28;20044;-68
2022/04/29 00:43:42;;;;;;;27.70;13.55;;;;;;;-144.47;57.04;53338.75;5089079;28;20036;-66
2022/04/29 00:46:08;;;;;;;22.67;14.07;;;;;;;-144.47;56.98;53352.66;5090055;28;20024;-65
2022/04/29 00:48:33;;;;;;;28.73;13.57;;;;;;;-144.47;56.97;53354.66;5089281;28;20039;-64
2022/04/29 00:50:59;;;;;;;30.90;14.68;;;;;;;-144.47;57.31;53340.75;5088593;28;20028;-67
2022/04/29 00:53:26;;;;;;;28.58;14.95;;;;;;;-144.47;57.23;53370.53;5089399;28;20113;-66
2022/04/29 00:55:55;;;;;;;24.58;14.48;;;;;;;-144.47;57.44;53324.84;5079847;28;20042;-65
2022/04/29 00:58:24;;;;;;;30.75;13.63;;;;;;;-144.47;57.42;53348.69;5084558;28;20046;-67
2022/04/29 01:00:50;;;;;;;24.60;13.30;;;;;;;-144.47;57.82;53330.81;5071178;28;20025;-66
2022/04/29 01:03:15;;;;;;;23.52;13.35;;;;;;;-144.47;57.75;53352.66;5090389;28;20032;-65
2022/04/29 01:05:42;;;;;;;23.35;13.75;;;;;;;-144.47;57.86;53326.84;5085377;28;20028;-66
2022/04/29 01:08:08;;;;;;;28.10;13.95;;;;;;;-144.47;58.05;53342.72;5089424;28;20031;-67
2022/04/29 01:10:34;;;;;;;31.52;14.80;;;;;;;-144.47;57.92;53360.63;5089192;28;20122;-65
2022/04/29 01:13:01;;;;;;;24.33;13.75;;;;;;;-144.47;57.91;53344.72;5088727;28;20073;-67
2022/04/29 01:15:27;;;;;;;27.48;13.60;;;;;;;-144.47;57.98;53338.75;5090016;28;20051;-67
2022/04/29 01:17:56;;;;;;;25.50;13.82;;;;;;;-144.47;58.42;53368.56;5082827;28;20082;-66
2022/04/29 01:20:27;;;;;;;22.90;13.75;;;;;;;-144.47;58.29;53380.47;5089509;28;20519;-67
2022/04/29 01:22:53;;;;;;;30.00;14.02;;;;;;;-144.47;58.26;53326.84;5074663;28;20028;-66
2022/04/29 01:25:18;;;;;;;23.80;13.70;;;;;;;-144.47;58.28;53332.81;5089455;28;20096;-67
2022/04/29 01:27:44;;;;;;;30.33;13.82;;;;;;;-144.47;58.30;53380.47;5088517;28;20020;-66
2022/04/29 01:30:13;;;;;;;26.63;14.07;;;;;;;-144.47;58.29;53350.69;5079139;28;20407;-67
2022/04/29 01:32:39;;;;;;;26.25;14.13;;;;;;;-144.47;58.20;53370.53;5079662;28;20024;-65
2022/04/29 01:35:07;;;;;;;29.80;14.63;;;;;;;-144.47;58.23;53364.59;5081383;28;20501;-67
2022/04/29 01:37:33;;;;;;;30.48;15.02;;;;;;;-144.47;58.84;53350.69;5069546;28;20047;-65
2022/04/29 01:39:59;;;;;;;28.63;17.20;;;;;;;-144.47;58.84;53350.69;5069955;28;20020;-67
2022/04/29 01:42:24;;;;;;;29.25;14.57;;;;;;;-144.47;58.89;53332.81;5087662;28;20044;-66
2022/04/29 01:44:50;;;;;;;24.35;14.07;;;;;;;-144.47;59.13;53324.84;5086522;28;20123;-67
2022/04/29 01:47:16;;;;;;;32.75;15.25;;;;;;;-144.47;59.29;53338.75;5088022;28;20032;-66
2022/04/29 01:49:41;;;;;;;32.00;16.98;;;;;;;-144.47;59.18;53352.66;5088269;28;20566;-67
2022/04/29 01:52:08;;;;;;;24.42;15.52;;;;;;;-144.47;59.08;53336.78;5087553;28;20439;-67
2022/04/29 01:54:35;;;;;;;31.15;16.17;;;;;;;-144.47;59.13;53348.69;5085716;28;20024;-66
2022/04/29 01:57:00;;;;;;;29.63;16.42;;;;;;;-144.47;58.98;53348.69;5088475;28;20035;-67
2022/04/29 01:59:28;;;;;;;27.83;16.73;;;;;;;-144.47;59.40;53360.63;5088394;28;20131;-64
2022/04/29 02:01:53;;;;;;;32.65;16.02;;;;;;;-144.47;59.37;53352.66;5087632;28;20032;-64
2022/04/29 02:04:18;;;;;;;32.47;16.92;;;;;;;-144.47;59.42;53386.44;5080984;28;20052;-65
2022/04/29 02:06:44;;;;;;;30.80;15.80;;;;;;;-144.47;59.31;53372.53;5080401;28;20031;-66
2022/04/29 02:09:10;;;;;;;32.38;16.52;;;;;;;-144.47;59.56;53394.38;5088670;28;20421;-67
2022/04/29 02:11:35;;;;;;;40.03;16.88;;;;;;;-144.47;59.67;53384.44;5087603;28;20036;-66
2022/04/29 02:14:01;;;;;;;27.00;15.45;;;;;;;-144.47;59.91;53346.72;5079591;28;20093;-68
2022/04/29 02:16:27;;;;;;;29.63;15.23;;;;;;;-144.47;60.22;53368.56;5087814;28;20058;-66
2022/04/29 02:18:52;;;;;;;32.45;16.27;;;;;;;-144.47;60.42;53390.41;5085655;28;20443;-64
2022/04/29 02:21:18;;;;;;;32.83;16.52;;;;;;;-144.47;60.12;53396.38;5086398;28;20126;-67
2022/04/29 02:23:43;;;;;;;27.58;16.00;;;;;;;-144.47;60.82;53330.81;5087092;28;20084;-66
2022/04/29 02:26:08;;;;;;;31.73;16.55;;;;;;;-144.47;60.63;53362.59;5086323;28;20032;-68
2022/04/29 02:28:35;;;;;;;31.08;17.08;;;;;;;-144.47;60.43;53400.34;5077139;28;20055;-67
2022/04/29 02:31:01;;;;;;;28.33;17.30;;;;;;;-144.47;61.05;53360.63;5086650;28;20066;-68
2022/04/29 02:33:30;;;;;;;33.78;17.67;;;;;;;-144.47;60.73;53392.41;5083185;28;20039;-66
2022/04/29 02:35:56;;;;;;;36.33;17.92;;;;;;;-144.47;60.38;53336.78;5086607;28;20126;-65
2022/04/29 02:38:22;;;;;;;28.63;16.92;;;;;;;-144.47;60.68;53348.69;5087337;28;20573;-68
2022/04/29 02:40:50;;;;;;;36.05;16.48;;;;;;;-144.47;60.58;53364.59;5066110;28;20024;-67
2022/04/29 02:43:16;;;;;;;27.42;16.45;;;;;;;-144.47;60.97;53364.59;5073250;28;20032;-66
2022/04/29 02:45:41;;;;;;;34.55;16.92;;;;;;;-144.47;60.96;53370.53;5085360;28;20046;-67
2022/04/29 02:48:07;;;;;;;35.33;17.77;;;;;;;-144.47;61.40;53372.53;5087698;28;20050;-67
2022/04/29 02:50:32;;;;;;;34.40;16.80;;;;;;;-144.47;61.31;53416.22;5087291;28;20032;-64
2022/04/29 02:52:57;;;;;;;35.65;17.00;;;;;;;-144.47;61.77;53396.38;5087049;28;20051;-65
2022/04/29 02:55:23;;;;;;;33.10;18.40;;;;;;;-144.47;61.67;53378.50;5082366;28;20034;-66
2022/04/29 02:57:48;;;;;;;39.67;17.55;;;;;;;-144.47;61.98;53364.59;5079756;28;20024;-68
2022/04/29 03:00:14;;;;;;;27.17;15.98;;;;;;;-144.47;61.99;53376.50;5087869;28;20035;-66
2022/04/29 03:02:39;;;;;;;35.75;16.85;;;;;;;-144.47;61.94;53376.50;5087441;28;20089;-67
2022/04/29 03:05:05;;;;;;;36.97;17.50;;;;;;;-144.47;62.13;53344.72;5086907;28;20131;-66
2022/04/29 03:07:31;;;;;;;30.58;16.85;;;;;;;-144.47;61.79;53384.44;5082687;28;20089;-66
2022/04/29 03:09:56;;;;;;;29.88;15.30;;;;;;;-144.47;61.64;53414.25;5087397;28;20016;-69
2022/04/29 03:12:23;;;;;;;33.17;18.15;;;;;;;-144.47;62.10;53356.63;5083403;28;20072;-64
2022/04/29 03:14:48;;;;;;;33.88;17.45;;;;;;;-144.47;62.00;53362.59;5085584;28;20046;-67
2022/04/29 03:19:58;;;;;;;31.83;17.25;;;;;;;-144.47;62.54;53384.44;5086146;28;20546;-68
2022/04/29 03:22:24;;;;;;;35.20;17.83;;;;;;;-144.47;62.77;53368.56;5079835;28;20107;-65
2022/04/29 03:24:50;;;;;;;34.72;18.58;;;;;;;-144.47;62.91;53376.50;5080731;28;20095;-68
2022/04/29 03:27:15;;;;;;;40.20;18.25;;;;;;;-144.47;62.98;53390.41;5088059;28;20044;-69
2022/04/29 03:29:40;;;;;;;40.42;18.23;;;;;;;-144.47;63.37;53380.47;5087850;28;20101;-67
2022/04/29 03:32:06;;;;;;;33.30;16.08;;;;;;;-144.47;63.11;53386.44;5086977;28;20394;-65
2022/04/29 03:34:31;;;;;;;28.75;16.77;;;;;;;-144.47;62.90;53358.63;5086175;28;20043;-68
2022/04/29 03:36:56;;;;;;;39.15;17.92;;;;;;;-144.47;62.93;53376.50;5088203;28;20563;-65
2022/04/29 03:39:22;;;;;;;32.53;17.00;;;;;;;-144.47;62.71;53372.53;5086750;28;20032;-68
2022/04/29 03:41:47;;;;;;;30.25;17.33;;;;;;;-144.47;62.67;53372.53;5064958;28;20033;-67
2022/04/29 03:44:12;;;;;;;25.98;16.15;;;;;;;-144.47;62.46;53386.44;5085969;28;20036;-65
2022/04/29 03:46:37;;;;;;;38.50;17.45;;;;;;;-144.47;62.82;53370.53;5065409;28;20035;-66
2022/04/29 03:51:47;;;;;;;34.03;17.70;;;;;;;-144.47;62.71;53376.50;5090433;28;20035;-69
2022/04/29 03:54:12;;;;;;;37.13;16.50;;;;;;;-144.47;62.69;53342.72;5085199;28;20028;-67
2022/04/29 03:56:38;;;;;;;26.92;16.33;;;;;;;-144.47;62.16;53372.53;5090886;28;20039;-63
2022/04/29 03:59:03;;;;;;;32.22;16.80;;;;;;;-144.47;62.11;53370.53;5090979;28;20040;-65
2022/04/29 04:01:29;;;;;;;32.03;16.63;;;;;;;-144.47;62.51;53348.69;5090631;28;20461;-65
2022/04/29 04:03:55;;;;;;;35.08;15.60;;;;;;;-144.47;62.27;53374.50;5089932;28;20035;-64
2022/04/29 04:09:23;;;;;;;27.00;14.70;;;;;;;-144.47;61.31;53364.59;5022379;28;20588;-67
2022/04/29 04:11:49;;;;;;;26.60;14.68;;;;;;;-144.47;59.97;53340.75;5076735;28;20162;-66
2022/04/29 04:14:18;;;;;;;29.15;14.27;;;;;;;-144.47;60.10;53386.44;5089806;28;20066;-66
2022/04/29 04:16:43;;;;;;;28.73;12.35;;;;;;;-144.47;60.12;53362.59;5089866;28;20182;-66
2022/04/29 04:19:09;;;;;;;26.20;12.50;;;;;;;-144.47;59.84;53362.59;5061408;28;20108;-64
2022/04/29 04:21:34;;;;;;;30.95;12.57;;;;;;;-144.47;59.05;53366.56;5088084;28;20453;-67
2022/04/29 04:23:59;;;;;;;35.08;13.23;;;;;;;-144.47;59.14;53400.34;5077117;28;20036;-64
2022/04/29 04:26:25;;;;;;;33.90;14.27;;;;;;;-144.47;58.74;53380.47;5089762;28;20063;-68
2022/04/29 04:28:50;;;;;;;27.27;12.23;;;;;;;-144.47;58.26;53372.53;5071606;28;20447;-67
2022/04/29 04:31:15;;;;;;;29.30;11.88;;;;;;;-144.47;57.98;53356.63;5089188;28;20020;-69
2022/04/29 04:33:41;;;;;;;27.50;14.13;;;;;;;-144.47;58.07;53366.56;5085670;28;20481;-66
2022/04/29 04:36:06;;;;;;;32.17;13.05;;;;;;;-144.47;58.02;53376.50;5089330;28;20047;-70
2022/04/29 04:38:32;;;;;;;29.77;13.60;;;;;;;-144.47;57.88;53356.63;5089300;28;20520;-65
2022/04/29 04:40:58;;;;;;;37.30;13.13;;;;;;;-144.47;57.71;53352.66;5088812;28;20043;-67
2022/04/29 04:43:27;;;;;;;29.00;14.02;;;;;;;-144.47;57.69;53356.63;5086532;28;20024;-68
2022/04/29 04:45:53;;;;;;;25.92;13.15;;;;;;;-144.47;57.83;53350.69;5089177;28;20024;-68
2022/04/29 04:48:19;;;;;;;24.80;13.48;;;;;;;-144.47;57.54;53358.63;5084173;28;20050;-65
2022/04/29 04:50:45;;;;;;;30.98;13.48;;;;;;;-144.47;57.49;53362.59;5085566;28;20028;-68
2022/04/29 04:53:10;;;;;;;36.35;13.55;;;;;;;-144.47;58.18;53344.72;5083063;28;20497;-65
2022/04/29 04:55:36;;;;;;;30.95;13.45;;;;;;;-144.47;58.06;53306.97;5088335;28;20036;-68
2022/04/29 04:58:02;;;;;;;25.88;14.38;;;;;;;-144.47;57.43;53376.50;5081696;28;20534;-67
2022/04/29 05:00:27;;;;;;;29.60;13.98;;;;;;;-144.47;57.02;53368.56;5083319;28;20043;-68
2022/04/29 05:02:52;;;;;;;37.72;13.68;;;;;;;-144.47;56.99;53354.66;5081179;28;20489;-67
2022/04/29 05:05:17;;;;;;;27.13;13.38;;;;;;;-144.47;56.53;53334.78;5075215;28;20229;-65
2022/04/29 05:07:43;;;;;;;29.75;13.35;;;;;;;-144.47;56.15;53318.91;5081035;28;20032;-68
2022/04/29 05:10:09;;;;;;;27.15;13.13;;;;;;;-144.47;55.79;53408.28;5077891;28;20040;-65
2022/04/29 05:12:44;;;;;;;29.63;13.40;;;;;;;-144.47;55.60;53350.69;5076855;28;20024;-67
2022/04/29 05:15:11;;;;;;;23.75;13.32;;;;;;;-144.47;54.55;53340.75;5075879;28;20665;-63
2022/04/29 05:17:39;;;;;;;21.08;11.85;;;;;;;-144.47;53.85;53350.69;5088354;28;20040;-66
2022/04/29 05:20:05;;;;;;;25.15;12.27;;;;;;;-144.47;54.14;53330.81;5071222;28;20032;-70
2022/04/29 05:22:31;;;;;;;27.17;11.10;;;;;;;-144.47;53.76;53301.03;5085983;28;20064;-66
2022/04/29 05:24:56;;;;;;;24.13;10.88;;;;;;;-144.47;53.46;53356.63;5083907;28;20055;-67
2022/04/29 05:27:22;;;;;;;26.80;12.23;;;;;;;-144.47;53.45;53348.69;5082280;28;20025;-65
2022/04/29 05:29:47;;;;;;;31.88;11.50;;;;;;;-144.47;54.16;53308.97;5085047;28;20518;-67
2022/04/29 05:32:13;;;;;;;22.08;11.55;;;;;;;-144.47;53.66;53358.63;5087930;28;20055;-68
2022/04/29 05:34:39;;;;;;;27.55;11.98;;;;;;;-144.47;52.98;53297.03;5076693;28;20571;-66
2022/04/29 05:37:04;;;;;;;33.30;12.50;;;;;;;-144.47;52.39;53352.66;5085080;28;20036;-68
2022/04/29 05:42:18;;;;;;;31.30;12.18;;;;;;;-144.47;52.12;53348.69;5085002;28;20210;-65
2022/04/29 05:44:44;;;;;;;27.73;11.40;;;;;;;-144.47;52.19;53334.78;5097515;22;20040;-65
2022/04/29 05:47:10;;;;;;;24.30;12.23;;;;;;;-144.47;51.79;53354.66;5064387;28;20116;-66
2022/04/29 05:49:35;;;;;;;28.50;12.90;;;;;;;-144.47;52.10;53342.72;5069242;28;20111;-67
2022/04/29 05:52:02;;;;;;;24.80;12.18;;;;;;;-144.47;52.15;53299.03;5070081;28;20016;-63
2022/04/29 05:54:28;;;;;;;22.77;11.75;;;;;;;-144.47;52.29;53348.69;5070180;28;20105;-66
2022/04/29 05:56:53;;;;;;;26.33;12.27;;;;;;;-144.47;52.49;53332.81;5069428;28;20029;-63
2022/04/29 05:59:18;;;;;;;21.95;11.00;;;;;;;-144.47;52.40;53320.88;5069634;28;20145;-67
2022/04/29 06:01:44;;;;;;;21.02;11.68;;;;;;;-144.47;52.24;53338.75;5069517;28;20036;-66
2022/04/29 06:04:09;;;;;;;31.00;11.77;;;;;;;-144.47;52.04;53322.88;5069856;28;20021;-67
2022/04/29 06:06:35;;;;;;;31.10;11.75;;;;;;;-144.47;51.84;53314.91;5065571;28;20097;-65
2022/04/29 06:09:00;;;;;;;20.20;10.73;;;;;;;-144.47;51.69;53338.75;5069696;28;20116;-63
2022/04/29 06:11:25;;;;;;;26.00;11.40;;;;;;;-144.47;51.39;53358.63;5069058;28;20524;-65
2022/04/29 06:13:51;;;;;;;24.95;10.77;;;;;;;-144.47;50.85;53293.06;5068304;28;20120;-67
2022/04/29 06:16:17;;;;;;;35.30;12.13;;;;;;;-144.47;50.78;53283.13;5068609;28;20050;-65
2022/04/29 06:18:43;;;;;;;20.58;10.63;;;;;;;-144.47;50.34;53332.81;5069607;28;20078;-63
2022/04/29 06:21:08;;;;;;;21.95;11.63;;;;;;;-144.47;50.06;53330.81;5069156;28;20036;-65
2022/04/29 06:23:33;;;;;;;22.02;11.02;;;;;;;-144.47;50.11;53287.13;5069688;28;20028;-67
2022/04/29 06:25:58;;;;;;;21.63;11.30;;;;;;;-144.47;50.15;53306.97;5068925;28;20085;-66
2022/04/29 06:28:24;;;;;;;28.15;11.75;;;;;;;-144.47;49.75;53318.91;5068350;28;20041;-66
2022/04/29 06:30:49;;;;;;;22.65;12.07;;;;;;;-144.47;49.46;53320.88;5069432;28;20021;-63
2022/04/29 06:33:16;;;;;;;23.13;11.40;;;;;;;-144.47;49.15;53322.88;5061169;28;20490;-64
2022/04/29 06:35:42;;;;;;;20.92;11.02;;;;;;;-144.47;48.79;53293.06;5068869;28;20033;-63
2022/04/29 06:38:11;;;;;;;31.02;13.23;;;;;;;-144.47;48.69;53297.03;5068519;28;20036;-65
2022/04/29 06:40:36;;;;;;;24.92;11.77;;;;;;;-144.47;48.71;53301.03;5068606;28;20028;-64
2022/04/29 06:43:01;;;;;;;33.90;13.50;;;;;;;-144.47;48.56;53308.97;5068479;28;20425;-63
2022/04/29 06:45:27;;;;;;;31.15;13.13;;;;;;;-144.47;47.92;53352.66;5067786;28;20737;-66
2022/04/29 06:47:52;;;;;;;26.17;12.07;;;;;;;-144.47;47.50;53269.22;5068065;28;20051;-66
2022/04/29 06:50:17;;;;;;;31.77;13.13;;;;;;;-144.47;47.93;53326.84;5068691;28;20028;-65
2022/04/29 06:52:43;;;;;;;27.25;13.98;;;;;;;-144.47;47.58;53299.03;5068145;28;20638;-65
2022/04/29 06:55:08;;;;;;;21.00;11.02;;;;;;;-144.47;46.55;53281.16;5068467;28;20127;-67
2022/04/29 06:57:37;;;;;;;26.85;12.40;;;;;;;-144.47;45.73;53303.00;5068335;28;20108;-66
2022/04/29 07:00:04;;;;;;;22.15;11.40;;;;;;;-144.47;45.53;53308.97;5062997;28;20029;-63
2022/04/29 07:02:29;;;;;;;26.55;11.85;;;;;;;-144.47;45.53;53275.19;5068131;28;20405;-64
2022/04/29 07:04:54;;;;;;;23.80;11.88;;;;;;;-144.47;45.10;53289.09;5047585;28;20029;-68
2022/04/29 07:07:20;;;;;;;27.52;12.80;;;;;;;-144.47;45.04;53291.09;5060784;28;20020;-65
2022/04/29 07:09:46;;;;;;;22.88;12.63;;;;;;;-144.47;44.41;53275.19;5067260;28;20027;-67
2022/04/29 07:12:11;;;;;;;24.02;12.90;;;;;;;-144.47;44.51;53287.13;5061236;28;20048;-65
2022/04/29 07:14:36;;;;;;;28.48;11.98;;;;;;;-144.47;44.40;53295.06;5068456;28;20474;-66
2022/04/29 07:17:02;;;;;;;24.67;11.40;;;;;;;-144.47;44.21;53273.22;5068566;28;20603;-67
2022/04/29 07:19:27;;;;;;;34.53;9.98;;;;;;;-144.47;43.29;53293.06;5068370;28;20123;-66
2022/04/29 07:21:53;;;;;;;22.83;8.02;;;;;;;-144.47;42.72;53291.09;5064422;28;20051;-66
2022/04/29 07:24:18;;;;;;;24.67;9.48;;;;;;;-144.47;42.41;53249.38;5065420;28;20036;-66
2022/04/29 07:26:44;;;;;;;20.40;9.60;;;;;;;-144.47;42.87;53263.28;5068950;28;20040;-68
2022/04/29 07:29:09;;;;;;;27.13;10.57;;;;;;;-144.47;42.87;53269.22;5066514;28;20125;-65
2022/04/29 07:31:35;;;;;;;23.38;9.48;;;;;;;-144.47;42.97;53273.22;5071539;28;20498;-65
2022/04/29 07:34:00;;;;;;;17.23;8.88;;;;;;;-144.47;42.25;53253.34;5053163;28;20051;-62
2022/04/29 07:41:53;;;;;;;19.42;9.48;;;;;;;-144.47;42.57;53245.41;5069259;28;20032;-66
2022/04/29 07:44:19;;;;;;;20.98;10.00;;;;;;;-144.47;42.89;53271.22;5070628;28;20040;-66
2022/04/29 07:46:47;;;;;;;27.30;10.30;;;;;;;-144.47;43.18;53257.31;5071932;28;20097;-65
2022/04/29 07:49:13;;;;;;;23.67;9.43;;;;;;;-144.47;42.99;53273.22;5061922;28;20032;-64
2022/04/29 07:51:39;;;;;;;18.85;8.82;;;;;;;-144.47;42.73;53271.22;5065840;28;20027;-66
2022/04/29 07:54:05;;;;;;;15.02;8.10;;;;;;;-144.47;42.80;53267.25;5062548;28;20037;-65
2022/04/29 07:56:31;;;;;;;15.55;8.48;;;;;;;-144.47;42.89;53221.56;5071099;28;20482;-66
2022/04/29 07:58:57;;;;;;;16.92;8.57;;;;;;;-144.47;43.18;53259.31;5070836;28;20085;-66
2022/04/29 08:01:23;;;;;;;22.70;10.15;;;;;;;-144.47;43.24;53277.19;5069835;28;20024;-65
2022/04/29 08:03:48;;;;;;;25.73;9.63;;;;;;;-144.47;43.68;53277.19;5071024;28;20103;-66
2022/04/29 08:06:13;;;;;;;15.60;8.85;;;;;;;-144.47;43.44;53245.41;5061509;28;20121;-67
2022/04/29 08:08:39;;;;;;;25.35;9.73;;;;;;;-144.47;43.44;53247.38;5061359;28;20535;-64
2022/04/29 08:11:05;;;;;;;23.38;9.68;;;;;;;-144.47;42.97;53293.06;5061361;28;20036;-66
2022/04/29 08:13:31;;;;;;;23.15;9.65;;;;;;;-144.47;41.92;53261.28;5067740;28;20524;-66
2022/04/29 08:15:58;;;;;;;25.40;10.90;;;;;;;-144.47;42.59;53281.16;5071740;28;20024;-65
2022/04/29 08:18:25;;;;;;;19.75;9.40;;;;;;;-144.47;40.96;53247.38;5070449;28;20378;-63
2022/04/29 08:20:50;;;;;;;21.98;10.27;;;;;;;-144.47;40.14;53227.53;5070742;28;20410;-66
2022/04/29 08:23:15;;;;;;;21.67;9.55;;;;;;;-144.47;39.96;53265.25;5070779;28;20037;-65
2022/04/29 08:25:40;;;;;;;17.20;8.75;;;;;;;-144.47;39.52;53233.47;5070750;28;20028;-65
2022/04/29 08:28:06;;;;;;;22.38;10.30;;;;;;;-144.47;39.86;53233.47;5070757;28;20052;-65
2022/04/29 08:30:31;;;;;;;20.02;9.10;;;;;;;-144.47;39.54;53219.56;5071565;28;20100;-64
2022/04/29 08:33:00;;;;;;;16.95;8.45;;;;;;;-144.47;38.82;53221.56;5062408;28;20021;-65
2022/04/29 08:35:32;;;;;;;;;;;;;;;-144.47;37.65;53249.38;5074607;28;20093;-73
2022/04/29 08:37:58;;;;;;;18.60;6.20;;;;;;;-144.47;37.46;53247.38;5047574;28;19931;-66
2022/04/29 08:40:24;;;;;;;22.77;6.43;;;;;;;-144.47;36.95;53247.38;5070495;28;20029;-64
2022/04/29 08:42:50;;;;;;;14.65;6.28;;;;;;;-144.47;36.70;53215.59;5070124;28;20089;-64
2022/04/29 08:45:18;;;;;;;25.42;7.45;;;;;;;-144.47;36.93;53221.56;5070321;28;20111;-64
2022/04/29 08:47:45;;;;;;;19.33;6.88;;;;;;;-144.47;36.96;53211.63;5068568;28;20063;-63
2022/04/29 08:50:16;;;;;;;17.48;7.00;;;;;;;-144.47;37.38;53221.56;5069153;28;20123;-64
2022/04/29 08:52:42;;;;;;;22.13;6.63;;;;;;;-144.47;37.40;53269.22;5066421;28;20032;-64
2022/04/29 09:00:44;;;;;;;21.98;8.90;;;;;;;-144.47;39.30;53237.44;5062883;28;20043;-66
2022/04/29 09:03:11;;;;;;;17.40;7.10;;;;;;;-144.47;38.17;53227.53;5047782;28;20037;-64
2022/04/29 09:05:36;;;;;;;13.90;6.18;;;;;;;-144.47;36.88;53215.59;5063180;28;20133;-66
2022/04/29 09:08:03;;;;;;;27.67;6.78;;;;;;;-144.47;36.91;53241.44;5066015;28;20075;-65
2022/04/29 09:10:36;;;;;;;18.00;5.68;;;;;;;-144.47;36.98;53263.28;5070139;28;20445;-66
2022/04/29 09:13:15;;;;;;;17.33;9.60;;;;;;;-144.47;39.95;53221.56;5066177;28;20021;-65
2022/04/29 09:16:10;;;;;;;28.88;10.90;;;;;;;-144.47;41.34;53227.53;5064881;28;20036;-64
2022/04/29 09:18:46;;;;;;;24.60;11.60;;;;;;;-144.47;41.28;53221.56;5054397;28;20048;-66
2022/04/29 09:21:24;;;;;;;19.95;10.13;;;;;;;-144.47;39.97;53237.44;5062982;28;20037;-63
2022/04/29 09:23:55;;;;;;;19.40;10.70;;;;;;;-144.47;39.64;53209.66;5067336;28;20029;-65
2022/04/29 09:26:25;;;;;;;19.38;9.40;;;;;;;-144.47;39.68;53223.56;5067153;28;20037;-67
2022/04/29 09:28:52;;;;;;;19.13;9.30;;;;;;;-144.47;39.39;53239.44;5030745;28;20498;-63
2022/04/29 09:31:18;;;;;;;25.80;9.65;;;;;;;-144.47;39.47;53191.78;5064557;28;20513;-67
2022/04/29 09:33:54;;;;;;;27.52;9.88;;;;;;;-144.47;39.96;53219.56;5068627;28;20028;-64
2022/04/29 09:36:24;;;;;;;21.98;9.68;;;;;;;-144.47;39.73;53237.44;5069584;28;20574;-66
2022/04/29 09:41:38;;;;;;;19.27;9.23;;;;;;;-144.47;39.24;53221.56;5064023;28;20146;-65
2022/04/29 09:44:03;;;;;;;19.35;8.50;;;;;;;-144.47;38.99;53227.53;5069366;28;20119;-66
2022/04/29 09:46:29;;;;;;;16.98;7.47;;;;;;;-144.47;38.75;53227.53;5069504;28;20071;-64
2022/04/29 09:49:03;;;;;;;20.88;8.27;;;;;;;-144.47;38.94;53207.66;5068760;28;20016;-66
2022/04/29 09:51:49;;;;;;;14.90;7.55;;;;;;;-144.47;37.95;53253.34;5069086;28;20033;-65
2022/04/29 09:54:16;;;;;;;13.05;7.53;;;;;;;-144.47;38.05;53233.47;5069086;28;20024;-65
2022/04/29 09:56:48;;;;;;;20.05;8.48;;;;;;;-144.47;38.07;53201.69;5069597;28;20028;-65
2022/04/29 09:59:13;;;;;;;24.88;8.63;;;;;;;-144.47;37.44;53221.56;5062927;28;20435;-64
2022/04/29 10:01:41;;;;;;;20.80;8.27;;;;;;;-144.47;37.48;53213.63;5068415;28;20029;-65
2022/04/29 10:04:08;;;;;;;20.65;9.77;;;;;;;-144.47;37.89;53233.47;5068254;28;20470;-66
2022/04/29 10:06:36;;;;;;;15.30;8.45;;;;;;;-144.47;37.73;53209.66;5069406;28;20055;-64
2022/04/29 10:09:02;;;;;;;17.98;9.38;;;;;;;-144.47;37.16;53217.59;5069098;28;20033;-65
2022/04/29 10:11:31;;;;;;;16.38;7.88;;;;;;;-144.47;37.13;53213.63;5069070;28;20032;-67
2022/04/29 10:14:00;;;;;;;;;;;;;;;-144.47;35.05;53229.50;5064196;28;20044;-66
2022/04/29 10:16:29;;;;;;;17.40;6.22;;;;;;;-144.47;35.01;53215.59;5061822;28;19917;-66
2022/04/29 10:21:54;;;;;;;15.85;5.18;;;;;;;-144.47;32.53;53217.59;5065509;28;20413;-65
2022/04/29 10:24:24;;;;;;;18.98;6.68;;;;;;;-144.47;33.81;53251.34;5063649;28;20082;-65
2022/04/29 10:26:53;;;;;;;12.02;4.93;;;;;;;-144.47;33.36;53197.72;5060436;28;20044;-66
2022/04/29 10:29:18;;;;;;;13.75;4.40;;;;;;;-144.47;33.47;53205.66;5066176;28;20051;-64
2022/04/29 10:32:07;;;;;;;12.57;4.75;;;;;;;-144.47;32.70;53189.78;5068112;28;20468;-68
2022/04/29 10:34:34;;;;;;;19.63;4.65;;;;;;;-144.47;33.58;53189.78;5068196;28;20117;-65
2022/04/29 10:37:09;;;;;;;17.42;4.80;;;;;;;-144.47;32.75;53225.53;5069620;28;20058;-66
2022/04/29 10:39:34;;;;;;;13.95;4.53;;;;;;;-144.47;32.61;53189.78;5067214;28;20033;-66
2022/04/29 10:42:02;;;;;;;9.60;3.75;;;;;;;-144.47;32.48;53177.88;5050738;28;20540;-64
2022/04/29 10:44:29;;;;;;;28.50;5.20;;;;;;;-144.47;32.37;53185.81;5068565;28;20033;-65
2022/04/29 10:46:54;;;;;;;19.42;5.40;;;;;;;-144.47;32.50;53173.88;5066790;28;20420;-65
2022/04/29 10:49:28;;;;;;;14.18;5.20;;;;;;;-144.47;32.50;53193.75;5068272;28;20016;-67
2022/04/29 10:51:55;;;;;;;12.27;4.47;;;;;;;-144.47;32.33;53179.84;5068619;28;20094;-65
2022/04/29 10:54:33;;;;;;;13.27;4.88;;;;;;;-144.47;32.30;53165.94;5063724;28;20771;-66
2022/04/29 10:57:04;;;;;;;12.60;4.22;;;;;;;-144.47;31.98;53199.72;5050191;28;20115;-66
2022/04/29 10:59:48;;;;;;;17.88;6.30;;;;;;;-144.47;32.03;53191.78;5050405;28;20043;-64
2022/04/29 11:02:26;;;;;;;16.05;3.80;;;;;;;-144.47;31.87;53217.59;5068369;28;20420;-67
2022/04/29 11:04:51;;;;;;;16.38;9.02;;;;;;;-144.47;31.65;53167.94;5047013;28;20107;-66
2022/04/29 11:07:42;;;;;;;17.83;4.68;;;;;;;-144.47;31.71;53201.69;5063073;28;20107;-68
2022/04/29 11:10:13;;;;;;;10.27;4.63;;;;;;;-144.47;32.00;53197.72;5067149;28;20024;-66
2022/04/29 11:12:40;;;;;;;12.07;4.43;;;;;;;-144.47;32.39;53221.56;5067905;28;20104;-67
2022/04/29 11:15:18;;;;;;;12.37;4.03;;;;;;;-144.47;32.03;53193.75;5067913;28;20060;-65
2022/04/29 11:17:44;;;;;;;11.70;4.65;;;;;;;-144.47;32.04;53225.53;5068303;28;20033;-67
2022/04/29 11:20:23;;;;;;;15.50;5.18;;;;;;;-144.47;31.78;53197.72;5068126;28;20043;-66
2022/04/29 11:25:59;;;;;;;12.32;4.50;;;;;;;-144.47;32.37;53211.63;5067761;28;20039;-65
2022/04/29 11:28:26;;;;;;;15.60;4.70;;;;;;;-144.47;31.95;53193.75;5063691;28;20040;-64
2022/04/29 11:31:03;;;;;;;13.32;4.00;;;;;;;-144.47;31.82;53193.75;5067786;28;20123;-65
2022/04/29 11:33:28;;;;;;;12.90;4.22;;;;;;;-144.47;30.94;53175.88;5068050;28;20040;-66
2022/04/29 11:36:04;;;;;;;13.63;4.95;;;;;;;-144.47;31.52;53165.94;5067393;28;20025;-66